ADDS METAR Data INFO
IDs: Format: Raw Decoded Include TAF

Data at: 2253 UTC 21 Nov 2017

KMIA 212153Z 13005KT 10SM FEW030 SCT075 BKN250 26/21 A2992 RMK AO2 SLP131 T02610211